Terminal Aerodrome Forecast
Issued by NWS Jacksonville, FL

Home | Current Version | Previous Version | Text Only | Print | Product List | Glossary On
Versions: 1 2 3 4 5 6 7 8 9 10 11 12 13 14 15 16
387
FTUS42 KJAX 262327
TAFGNV
TAF
KGNV 262327Z 2700/2724 07006KT P6SM FEW035 SCT250
     FM270400 VRB02KT P6SM FEW250
     FM271400 08008KT P6SM VCSH BKN035
     FM271800 09010KT P6SM VCSH BKN040 BKN250=

USA.gov is the U.S. government's official web portal to all federal, state and local government web resources and services.